Time;durP1;ratioP1;P1;durP2;ratioP2;P2;SDS_P1;SDS_P2;PMS_P1;PMS_P2;Temp;Humidity;BMP_temperature;BMP_pressure;BME280_temperature;BME280_humidity;BME280_pressure;Samples;Min_cycle;Max_cycle;Signal;HPM_P1;HPM_P2
2024/02/14 00:00:13;;;;;;;3.33;1.70;;;;;;;;;;5075085;28;20205;-86
2024/02/14 00:02:40;;;;;;;2.87;1.70;;;;;;;;;;5086761;28;20257;-86
2024/02/14 00:05:07;;;;;;;3.87;1.83;;;;;;;;;;5093758;28;20204;-86
2024/02/14 00:07:37;;;;;;;4.30;2.50;;;;;;;;;;5093597;28;20213;-85
2024/02/14 00:10:08;;;;;;;3.67;1.80;;;;;;;;;;5093657;28;20270;-86
2024/02/14 00:12:35;;;;;;;1.80;1.20;;;;;;;;;;5093689;28;20204;-86
2024/02/14 00:15:02;;;;;;;1.43;1.10;;;;;;;;;;5086006;28;20229;-86
2024/02/14 00:17:31;;;;;;;1.00;0.90;;;;;;;;;;5087572;28;20211;-86
2024/02/14 00:19:58;;;;;;;1.43;0.90;;;;;;;;;;5085040;28;20687;-86
2024/02/14 00:22:24;;;;;;;1.40;1.30;;;;;;;;;;5075053;28;20638;-86
2024/02/14 00:24:51;;;;;;;3.43;1.40;;;;;;;;;;5085009;28;20296;-86
2024/02/14 00:27:18;;;;;;;1.43;1.33;;;;;;;;;;5089098;28;20563;-86
2024/02/14 00:29:46;;;;;;;1.60;1.07;;;;;;;;;;5093159;28;20204;-86
2024/02/14 00:32:13;;;;;;;1.30;1.10;;;;;;;;;;5089953;28;20625;-86
2024/02/14 00:34:41;;;;;;;1.17;1.10;;;;;;;;;;5088480;28;20588;-86
2024/02/14 00:37:08;;;;;;;0.80;0.80;;;;;;;;;;5092795;28;20700;-86
2024/02/14 00:39:35;;;;;;;1.20;1.10;;;;;;;;;;5102544;28;20228;-87
2024/02/14 00:42:02;;;;;;;0.90;0.90;;;;;;;;;;5073355;28;20201;-87
2024/02/14 00:44:29;;;;;;;0.90;0.90;;;;;;;;;;5059992;28;20197;-87
2024/02/14 00:46:59;;;;;;;1.10;1.07;;;;;;;;;;5072477;28;20204;-87
2024/02/14 00:49:26;;;;;;;0.80;0.80;;;;;;;;;;5081850;28;20240;-86
2024/02/14 00:51:55;;;;;;;2.30;1.17;;;;;;;;;;5072944;28;20224;-87
2024/02/14 00:54:21;;;;;;;0.77;0.77;;;;;;;;;;5093054;28;20212;-87
2024/02/14 00:56:49;;;;;;;1.83;0.70;;;;;;;;;;5074477;28;20273;-87
2024/02/14 00:59:16;;;;;;;0.80;0.80;;;;;;;;;;5082247;28;20646;-86
2024/02/14 01:01:44;;;;;;;0.83;0.83;;;;;;;;;;5090616;28;20212;-86
2024/02/14 01:04:11;;;;;;;1.07;1.00;;;;;;;;;;5092521;28;20200;-87
2024/02/14 01:06:38;;;;;;;1.30;1.20;;;;;;;;;;5092527;28;20204;-87
2024/02/14 01:09:06;;;;;;;1.00;0.90;;;;;;;;;;5081882;28;20204;-87
2024/02/14 01:11:33;;;;;;;1.43;1.20;;;;;;;;;;5059228;28;20609;-87
2024/02/14 01:14:01;;;;;;;1.27;1.17;;;;;;;;;;5093018;28;20212;-86
2024/02/14 01:16:28;;;;;;;1.60;1.30;;;;;;;;;;5092864;28;20208;-87
2024/02/14 01:18:55;;;;;;;1.20;1.10;;;;;;;;;;5074599;28;20208;-87
2024/02/14 01:21:21;;;;;;;2.37;1.20;;;;;;;;;;5092258;28;20209;-86
2024/02/14 01:23:48;;;;;;;1.40;1.30;;;;;;;;;;5074797;28;20208;-91
2024/02/14 01:26:16;;;;;;;1.30;1.13;;;;;;;;;;5073375;28;20205;-85
2024/02/14 01:28:44;;;;;;;1.27;1.10;;;;;;;;;;5085699;28;20601;-86
2024/02/14 01:31:12;;;;;;;1.17;1.07;;;;;;;;;;5074346;28;20223;-85
2024/02/14 01:33:40;;;;;;;1.53;1.23;;;;;;;;;;5087561;28;21132;-86
2024/02/14 01:36:07;;;;;;;0.90;0.90;;;;;;;;;;5078993;28;20215;-87
2024/02/14 01:38:35;;;;;;;0.90;0.90;;;;;;;;;;5060772;28;20212;-87
2024/02/14 01:41:03;;;;;;;1.03;1.03;;;;;;;;;;5085808;28;20204;-86
2024/02/14 01:43:31;;;;;;;0.90;0.90;;;;;;;;;;5081824;28;20239;-87
2024/02/14 01:46:04;;;;;;;1.00;1.00;;;;;;;;;;5092095;28;20750;-87
2024/02/14 01:48:31;;;;;;;0.80;0.80;;;;;;;;;;5091680;28;20336;-87
2024/02/14 01:50:58;;;;;;;0.80;0.80;;;;;;;;;;5091357;28;20216;-86
2024/02/14 01:53:25;;;;;;;0.73;0.73;;;;;;;;;;5091735;28;20204;-86
2024/02/14 01:55:52;;;;;;;0.70;0.70;;;;;;;;;;5078328;28;20242;-86
2024/02/14 01:58:19;;;;;;;0.80;0.80;;;;;;;;;;5091344;28;20214;-86
2024/02/14 02:00:48;;;;;;;0.80;0.80;;;;;;;;;;5073469;28;20670;-86
2024/02/14 02:03:15;;;;;;;0.70;0.70;;;;;;;;;;5083678;28;20208;-84
2024/02/14 02:05:42;;;;;;;0.80;0.80;;;;;;;;;;5091277;28;20253;-85
2024/02/14 02:08:09;;;;;;;1.20;1.13;;;;;;;;;;5091987;28;20208;-85
2024/02/14 02:10:37;;;;;;;1.30;1.20;;;;;;;;;;5054422;28;20213;-86
2024/02/14 02:13:07;;;;;;;1.37;1.30;;;;;;;;;;5071244;28;20236;-86
2024/02/14 02:15:34;;;;;;;1.43;1.33;;;;;;;;;;5091377;28;20242;-85
2024/02/14 02:18:05;;;;;;;1.40;1.30;;;;;;;;;;5078179;28;20209;-87
2024/02/14 02:20:32;;;;;;;1.87;1.60;;;;;;;;;;5071756;28;20575;-86
2024/02/14 02:23:01;;;;;;;1.63;1.50;;;;;;;;;;5085765;28;20204;-86
2024/02/14 02:25:28;;;;;;;1.23;1.13;;;;;;;;;;5083970;28;20197;-86
2024/02/14 02:27:56;;;;;;;0.90;0.90;;;;;;;;;;5072131;28;20222;-86
2024/02/14 02:30:23;;;;;;;1.30;1.20;;;;;;;;;;5073989;28;20223;-86
2024/02/14 02:32:51;;;;;;;3.60;1.10;;;;;;;;;;5091472;28;20247;-89
2024/02/14 02:35:19;;;;;;;1.10;1.07;;;;;;;;;;5091276;28;20238;-85
2024/02/14 02:37:47;;;;;;;1.37;1.27;;;;;;;;;;5077523;28;20259;-85
2024/02/14 02:40:16;;;;;;;2.73;2.53;;;;;;;;;;5082468;28;20208;-86
2024/02/14 02:42:45;;;;;;;2.43;2.23;;;;;;;;;;5087817;28;20200;-86
2024/02/14 02:45:12;;;;;;;1.57;1.47;;;;;;;;;;5080560;28;20232;-85
2024/02/14 02:47:39;;;;;;;1.30;1.27;;;;;;;;;;5085147;28;20216;-86
2024/02/14 02:50:10;;;;;;;1.40;1.30;;;;;;;;;;5082208;28;20291;-86
2024/02/14 02:52:37;;;;;;;1.40;1.30;;;;;;;;;;5090841;28;20236;-85
2024/02/14 02:55:05;;;;;;;1.37;1.27;;;;;;;;;;5079612;28;20201;-84
2024/02/14 02:57:34;;;;;;;2.20;1.90;;;;;;;;;;5095045;28;20208;-83
2024/02/14 03:00:01;;;;;;;4.33;2.03;;;;;;;;;;5090203;28;20200;-83
2024/02/14 03:02:28;;;;;;;118.67;62.20;;;;;;;;;;5090140;28;20200;-84
2024/02/14 03:04:54;;;;;;;43.13;28.30;;;;;;;;;;5090680;28;20265;-84
2024/02/14 03:07:23;;;;;;;4.20;3.50;;;;;;;;;;5091284;28;20593;-84
2024/02/14 03:09:50;;;;;;;1.50;1.40;;;;;;;;;;5091502;28;20259;-84
2024/02/14 03:12:18;;;;;;;1.83;1.70;;;;;;;;;;5088967;28;20232;-83
2024/02/14 03:14:46;;;;;;;0.70;0.70;;;;;;;;;;5090782;28;20204;-83
2024/02/14 03:17:13;;;;;;;1.03;0.93;;;;;;;;;;5090639;28;20208;-84
2024/02/14 03:19:41;;;;;;;4.60;2.80;;;;;;;;;;5079103;28;20631;-82
2024/02/14 03:22:08;;;;;;;1.90;1.70;;;;;;;;;;5089400;28;20592;-84
2024/02/14 03:24:36;;;;;;;18.80;10.83;;;;;;;;;;5090461;28;20243;-84
2024/02/14 03:27:05;;;;;;;3.43;2.70;;;;;;;;;;5090942;28;20207;-83
2024/02/14 03:29:35;;;;;;;1.27;1.10;;;;;;;;;;5089898;28;20296;-84
2024/02/14 03:32:04;;;;;;;0.63;0.63;;;;;;;;;;5090087;28;20322;-83
2024/02/14 03:34:33;;;;;;;0.73;0.73;;;;;;;;;;5077717;28;20208;-83
2024/02/14 03:37:02;;;;;;;0.50;0.50;;;;;;;;;;5094340;28;20211;-83
2024/02/14 03:39:28;;;;;;;0.60;0.60;;;;;;;;;;5094236;28;20364;-83
2024/02/14 03:41:55;;;;;;;0.60;0.60;;;;;;;;;;5094426;28;20207;-83
2024/02/14 03:44:23;;;;;;;0.70;0.70;;;;;;;;;;5094291;28;20208;-85
2024/02/14 03:46:49;;;;;;;1.93;1.53;;;;;;;;;;5094164;28;20212;-83
2024/02/14 03:49:18;;;;;;;0.67;0.67;;;;;;;;;;5094027;28;20215;-81
2024/02/14 03:51:44;;;;;;;0.60;0.60;;;;;;;;;;5100069;28;20235;-83
2024/02/14 03:54:11;;;;;;;0.93;0.93;;;;;;;;;;5080479;28;20219;-82
2024/02/14 03:56:38;;;;;;;0.80;0.80;;;;;;;;;;5093656;28;20243;-82
2024/02/14 03:59:08;;;;;;;0.97;0.97;;;;;;;;;;5093067;28;20204;-83
2024/02/14 04:01:35;;;;;;;1.07;1.07;;;;;;;;;;5093595;28;20265;-83
2024/02/14 04:04:02;;;;;;;1.10;1.10;;;;;;;;;;5093245;28;20674;-81
2024/02/14 04:06:32;;;;;;;1.30;1.03;;;;;;;;;;5094273;28;20223;-82
2024/02/14 04:08:59;;;;;;;1.10;1.10;;;;;;;;;;5080508;28;20348;-81
2024/02/14 04:11:26;;;;;;;2.67;1.73;;;;;;;;;;5104942;28;20191;-81
2024/02/14 04:13:53;;;;;;;5.50;2.97;;;;;;;;;;5080773;28;20674;-82
2024/02/14 04:16:21;;;;;;;1.90;1.80;;;;;;;;;;5082397;28;20240;-80
2024/02/14 04:18:48;;;;;;;1.57;1.47;;;;;;;;;;5091749;28;20212;-81
2024/02/14 04:21:15;;;;;;;1.30;1.10;;;;;;;;;;5081112;28;20212;-82
2024/02/14 04:23:43;;;;;;;3.23;1.10;;;;;;;;;;5078773;28;20296;-81
2024/02/14 04:26:10;;;;;;;1.20;1.10;;;;;;;;;;5080594;28;20227;-82
2024/02/14 04:28:36;;;;;;;1.40;1.30;;;;;;;;;;5079144;28;20227;-82
2024/02/14 04:31:03;;;;;;;3.23;2.10;;;;;;;;;;5092746;28;20273;-81
2024/02/14 04:33:30;;;;;;;5.80;4.30;;;;;;;;;;5093240;28;20240;-81
2024/02/14 04:35:57;;;;;;;5.33;3.93;;;;;;;;;;5093199;28;20204;-82
2024/02/14 04:38:24;;;;;;;2.57;1.93;;;;;;;;;;5101819;28;20251;-82
2024/02/14 04:40:52;;;;;;;0.93;0.93;;;;;;;;;;5078763;28;20593;-81
2024/02/14 04:43:19;;;;;;;0.90;0.90;;;;;;;;;;5081713;28;20193;-81
2024/02/14 04:45:46;;;;;;;0.77;0.77;;;;;;;;;;5078062;28;20209;-80
2024/02/14 04:48:13;;;;;;;0.57;0.57;;;;;;;;;;5093078;28;20243;-81
2024/02/14 04:50:40;;;;;;;0.87;0.87;;;;;;;;;;5079373;28;20679;-81
2024/02/14 04:53:07;;;;;;;1.20;1.10;;;;;;;;;;5092917;28;20216;-81
2024/02/14 04:55:34;;;;;;;0.83;0.83;;;;;;;;;;5092425;28;20299;-81
2024/02/14 04:58:02;;;;;;;0.90;0.90;;;;;;;;;;5092449;28;20222;-83
2024/02/14 05:00:29;;;;;;;1.27;1.17;;;;;;;;;;5096362;28;20200;-81
2024/02/14 05:02:57;;;;;;;1.17;1.10;;;;;;;;;;5102935;28;20718;-82
2024/02/14 05:05:24;;;;;;;1.40;1.30;;;;;;;;;;5092377;28;20211;-85
2024/02/14 05:07:50;;;;;;;2.20;1.20;;;;;;;;;;5092530;28;20638;-81
2024/02/14 05:10:17;;;;;;;1.40;1.30;;;;;;;;;;5088559;28;20648;-81
2024/02/14 05:12:44;;;;;;;0.87;0.87;;;;;;;;;;5091346;28;20224;-81
2024/02/14 05:15:13;;;;;;;0.70;0.70;;;;;;;;;;5081792;28;20212;-81
2024/02/14 05:17:43;;;;;;;0.80;0.80;;;;;;;;;;5071629;28;20209;-81
2024/02/14 05:20:10;;;;;;;4.00;3.23;;;;;;;;;;5082705;28;20208;-81
2024/02/14 05:22:38;;;;;;;1.50;1.40;;;;;;;;;;5091809;28;20204;-81
2024/02/14 05:25:08;;;;;;;1.27;1.20;;;;;;;;;;5103703;28;20223;-81
2024/02/14 05:27:36;;;;;;;1.00;1.00;;;;;;;;;;5080050;28;20208;-82
2024/02/14 05:30:07;;;;;;;3.73;2.83;;;;;;;;;;5079582;28;20240;-81
2024/02/14 05:32:35;;;;;;;2.03;1.90;;;;;;;;;;5096745;28;20375;-81
2024/02/14 05:35:05;;;;;;;1.73;1.63;;;;;;;;;;5099160;28;20203;-81
2024/02/14 05:37:32;;;;;;;0.97;0.97;;;;;;;;;;5091733;28;20736;-81
2024/02/14 05:39:59;;;;;;;3.63;3.20;;;;;;;;;;5089574;28;20621;-82
2024/02/14 05:42:26;;;;;;;4.03;3.70;;;;;;;;;;5090916;28;20200;-82
2024/02/14 05:44:53;;;;;;;6.63;6.00;;;;;;;;;;5091488;28;20203;-83
2024/02/14 05:47:20;;;;;;;12.37;9.17;;;;;;;;;;5091805;28;20200;-83
2024/02/14 05:49:48;;;;;;;8.03;5.53;;;;;;;;;;5091769;28;20196;-83
2024/02/14 05:52:15;;;;;;;5.80;3.40;;;;;;;;;;5090524;28;20231;-83
2024/02/14 05:54:42;;;;;;;2.40;2.20;;;;;;;;;;5091670;28;20273;-83
2024/02/14 05:57:09;;;;;;;1.83;1.30;;;;;;;;;;5091069;28;20679;-83
2024/02/14 05:59:38;;;;;;;1.30;1.20;;;;;;;;;;5099082;28;20204;-84
2024/02/14 06:02:09;;;;;;;1.87;1.73;;;;;;;;;;5084806;28;20282;-83
2024/02/14 06:04:39;;;;;;;9.43;7.00;;;;;;;;;;5086174;28;20235;-84
2024/02/14 06:07:10;;;;;;;6.43;4.40;;;;;;;;;;5096865;28;20197;-84
2024/02/14 06:09:36;;;;;;;5.37;2.80;;;;;;;;;;5089130;28;20201;-84
2024/02/14 06:12:06;;;;;;;2.57;2.03;;;;;;;;;;5080188;28;20266;-84
2024/02/14 06:14:34;;;;;;;3.17;2.20;;;;;;;;;;5089195;28;20204;-84
2024/02/14 06:17:00;;;;;;;1.33;1.30;;;;;;;;;;5091265;28;20208;-84
2024/02/14 06:19:27;;;;;;;1.40;1.30;;;;;;;;;;5090753;28;20218;-84
2024/02/14 06:21:54;;;;;;;1.40;1.30;;;;;;;;;;5090856;28;20200;-84
2024/02/14 06:24:22;;;;;;;2.47;1.17;;;;;;;;;;5090507;28;20207;-85
2024/02/14 06:26:49;;;;;;;1.77;1.67;;;;;;;;;;5077293;28;20212;-84
2024/02/14 06:29:16;;;;;;;8.70;5.73;;;;;;;;;;5090594;28;20204;-84
2024/02/14 06:31:43;;;;;;;7.10;5.37;;;;;;;;;;5090356;28;20214;-84
2024/02/14 06:34:10;;;;;;;1.77;1.63;;;;;;;;;;5097638;28;20684;-84
2024/02/14 06:36:37;;;;;;;1.80;1.70;;;;;;;;;;5097910;28;20207;-85
2024/02/14 06:39:05;;;;;;;1.73;1.60;;;;;;;;;;5077440;28;20192;-84
2024/02/14 06:41:33;;;;;;;10.13;7.00;;;;;;;;;;5077715;28;20269;-84
2024/02/14 06:44:00;;;;;;;2.83;2.57;;;;;;;;;;5077026;28;20682;-84
2024/02/14 06:46:26;;;;;;;15.87;10.90;;;;;;;;;;5083803;28;20200;-84
2024/02/14 06:48:54;;;;;;;6.33;4.80;;;;;;;;;;5085302;28;20207;-84
2024/02/14 06:51:21;;;;;;;4.53;3.00;;;;;;;;;;5090953;28;20231;-84
2024/02/14 06:53:48;;;;;;;13.73;8.40;;;;;;;;;;5089367;28;20230;-84
2024/02/14 06:56:15;;;;;;;11.40;8.17;;;;;;;;;;5086862;28;20218;-84
2024/02/14 06:58:43;;;;;;;1.53;1.43;;;;;;;;;;5096335;28;20208;-84
2024/02/14 07:01:12;;;;;;;4.27;3.20;;;;;;;;;;5090354;28;20702;-84
2024/02/14 07:03:40;;;;;;;3.53;3.23;;;;;;;;;;5088732;28;20208;-84
2024/02/14 07:06:07;;;;;;;7.33;4.97;;;;;;;;;;5080066;28;20287;-84
2024/02/14 07:08:34;;;;;;;3.43;3.10;;;;;;;;;;5090372;28;20596;-84
2024/02/14 07:11:01;;;;;;;1.23;1.20;;;;;;;;;;5094273;28;20204;-84
2024/02/14 07:13:28;;;;;;;1.83;1.50;;;;;;;;;;5097427;28;20227;-87
2024/02/14 07:15:56;;;;;;;2.20;1.70;;;;;;;;;;5114895;28;20195;-84
2024/02/14 07:18:23;;;;;;;6.97;6.27;;;;;;;;;;5080465;28;20208;-84
2024/02/14 07:20:50;;;;;;;3.37;3.07;;;;;;;;;;5084871;28;20713;-84
2024/02/14 07:23:17;;;;;;;29.10;19.70;;;;;;;;;;5094382;28;20204;-83
2024/02/14 07:25:44;;;;;;;14.63;10.70;;;;;;;;;;5094453;28;20988;-84
2024/02/14 07:28:11;;;;;;;20.57;16.83;;;;;;;;;;5085418;28;20203;-84
2024/02/14 07:30:38;;;;;;;11.07;7.27;;;;;;;;;;5102626;28;20751;-83
2024/02/14 07:33:07;;;;;;;2.30;2.10;;;;;;;;;;5098643;28;20714;-84
2024/02/14 07:35:34;;;;;;;6.60;5.27;;;;;;;;;;5090601;28;20232;-84
2024/02/14 07:38:01;;;;;;;10.33;8.67;;;;;;;;;;5079251;28;20208;-83
2024/02/14 07:40:30;;;;;;;5.73;4.80;;;;;;;;;;5093352;28;20208;-84
2024/02/14 07:42:57;;;;;;;4.63;3.73;;;;;;;;;;5094408;28;20291;-84
2024/02/14 07:45:24;;;;;;;3.80;3.20;;;;;;;;;;5094109;28;20208;-84
2024/02/14 07:47:51;;;;;;;3.47;3.17;;;;;;;;;;5093898;28;20219;-84
2024/02/14 07:50:19;;;;;;;7.20;6.60;;;;;;;;;;5094048;28;20200;-84
2024/02/14 07:52:46;;;;;;;3.10;2.80;;;;;;;;;;5101467;28;20204;-84
2024/02/14 07:55:13;;;;;;;1.73;1.63;;;;;;;;;;5086497;28;20200;-84
2024/02/14 07:57:42;;;;;;;1.20;1.10;;;;;;;;;;5107729;28;20211;-84
2024/02/14 08:00:10;;;;;;;2.07;1.23;;;;;;;;;;5093831;28;20261;-84
2024/02/14 08:02:38;;;;;;;0.50;0.50;;;;;;;;;;5073316;28;20292;-84
2024/02/14 08:05:09;;;;;;;0.77;0.77;;;;;;;;;;5100564;28;20207;-84
2024/02/14 08:07:40;;;;;;;0.80;0.80;;;;;;;;;;5081413;28;20201;-84
2024/02/14 08:10:07;;;;;;;1.17;0.60;;;;;;;;;;5093432;28;20200;-84
2024/02/14 08:12:35;;;;;;;0.60;0.60;;;;;;;;;;5093843;28;20208;-84
2024/02/14 08:15:04;;;;;;;0.50;0.50;;;;;;;;;;5093159;28;20235;-84
2024/02/14 08:17:31;;;;;;;0.80;0.80;;;;;;;;;;5093195;28;20302;-85
2024/02/14 08:19:58;;;;;;;0.60;0.60;;;;;;;;;;5079796;28;20208;-84
2024/02/14 08:22:26;;;;;;;4.40;3.90;;;;;;;;;;5103458;28;20203;-84
2024/02/14 08:24:55;;;;;;;0.90;0.90;;;;;;;;;;5082479;28;20648;-84
2024/02/14 08:27:22;;;;;;;0.50;0.50;;;;;;;;;;5093572;28;20232;-83
2024/02/14 08:29:49;;;;;;;0.60;0.60;;;;;;;;;;5106700;28;20196;-84
2024/02/14 08:32:16;;;;;;;0.40;0.40;;;;;;;;;;5093110;28;20232;-85
2024/02/14 08:34:43;;;;;;;7.63;6.83;;;;;;;;;;5093059;28;20235;-84
2024/02/14 08:37:10;;;;;;;3.13;2.80;;;;;;;;;;5093068;28;20262;-84
2024/02/14 08:39:37;;;;;;;2.27;0.90;;;;;;;;;;5092858;28;20667;-84
2024/02/14 08:42:08;;;;;;;0.50;0.50;;;;;;;;;;5092983;28;20243;-84
2024/02/14 08:44:35;;;;;;;1.00;1.00;;;;;;;;;;5092551;28;20204;-85
2024/02/14 08:47:02;;;;;;;1.10;1.10;;;;;;;;;;5080806;28;20219;-85
2024/02/14 08:49:28;;;;;;;0.93;0.93;;;;;;;;;;5078292;28;20200;-84
2024/02/14 08:51:55;;;;;;;0.97;0.97;;;;;;;;;;5080530;28;20295;-84
2024/02/14 08:54:23;;;;;;;1.37;1.27;;;;;;;;;;5083690;28;20227;-84
2024/02/14 08:56:50;;;;;;;0.80;0.80;;;;;;;;;;5087618;28;20232;-83
2024/02/14 08:59:18;;;;;;;0.70;0.70;;;;;;;;;;5092842;28;20648;-84
2024/02/14 09:01:44;;;;;;;0.80;0.80;;;;;;;;;;5092521;28;20205;-83
2024/02/14 09:04:11;;;;;;;0.60;0.60;;;;;;;;;;5092268;28;20204;-84
2024/02/14 09:06:39;;;;;;;0.47;0.47;;;;;;;;;;5092471;28;20582;-84
2024/02/14 09:09:10;;;;;;;0.70;0.70;;;;;;;;;;5079159;28;20200;-84
2024/02/14 09:11:40;;;;;;;1.20;1.20;;;;;;;;;;5091898;28;20204;-84
2024/02/14 09:14:07;;;;;;;2.50;2.30;;;;;;;;;;5092417;28;20617;-84
2024/02/14 09:16:35;;;;;;;1.27;1.23;;;;;;;;;;5080033;28;20205;-84
2024/02/14 09:19:03;;;;;;;1.53;1.20;;;;;;;;;;5104282;28;20204;-84
2024/02/14 09:21:30;;;;;;;1.10;1.10;;;;;;;;;;5090344;28;20696;-83
2024/02/14 09:23:57;;;;;;;0.80;0.80;;;;;;;;;;5081216;28;20602;-84
2024/02/14 09:26:24;;;;;;;0.70;0.70;;;;;;;;;;5089421;28;20203;-84
2024/02/14 09:28:51;;;;;;;0.60;0.60;;;;;;;;;;5081398;28;20695;-84
2024/02/14 09:31:21;;;;;;;0.83;0.77;;;;;;;;;;5091859;28;20261;-83
2024/02/14 09:33:49;;;;;;;0.50;0.50;;;;;;;;;;5091404;28;20290;-84
2024/02/14 09:36:16;;;;;;;19.30;9.43;;;;;;;;;;5091924;28;20209;-83
2024/02/14 09:38:44;;;;;;;2.07;1.87;;;;;;;;;;5091944;28;20261;-85
2024/02/14 09:41:18;;;;;;;1.20;1.20;;;;;;;;;;5095639;28;20196;-84
2024/02/14 09:43:46;;;;;;;16.73;9.47;;;;;;;;;;5088149;28;20209;-84
2024/02/14 09:46:14;;;;;;;6.33;5.20;;;;;;;;;;5085340;28;20371;-84
2024/02/14 09:48:42;;;;;;;3.30;3.00;;;;;;;;;;5084207;28;20682;-84
2024/02/14 09:51:11;;;;;;;3.13;1.20;;;;;;;;;;5091785;28;20201;-83
2024/02/14 09:53:38;;;;;;;0.57;0.57;;;;;;;;;;5077712;28;20311;-84
2024/02/14 09:56:10;;;;;;;3.10;2.30;;;;;;;;;;5084823;28;20255;-85
2024/02/14 09:58:37;;;;;;;0.70;0.70;;;;;;;;;;5071316;28;20247;-84
2024/02/14 10:01:09;;;;;;;0.80;0.80;;;;;;;;;;5079703;28;20200;-85
2024/02/14 10:03:39;;;;;;;3.47;1.80;;;;;;;;;;5091124;28;20208;-84
2024/02/14 10:06:10;;;;;;;2.10;1.80;;;;;;;;;;5082330;28;20279;-85
2024/02/14 10:08:39;;;;;;;1.60;1.40;;;;;;;;;;5074822;28;20273;-84
2024/02/14 10:11:10;;;;;;;0.87;0.70;;;;;;;;;;5091477;28;20628;-84
2024/02/14 10:13:37;;;;;;;0.50;0.50;;;;;;;;;;5086312;28;20228;-85
2024/02/14 10:16:08;;;;;;;1.23;1.03;;;;;;;;;;5083009;28;20221;-84
2024/02/14 10:18:38;;;;;;;0.90;0.90;;;;;;;;;;5091216;28;20556;-85
2024/02/14 10:21:06;;;;;;;0.87;0.87;;;;;;;;;;5091249;28;20641;-85
2024/02/14 10:23:34;;;;;;;1.10;1.00;;;;;;;;;;5097712;28;20633;-84
2024/02/14 10:26:01;;;;;;;1.00;1.00;;;;;;;;;;5098079;28;20212;-84
2024/02/14 10:28:29;;;;;;;0.83;0.83;;;;;;;;;;5071029;28;20708;-84
2024/02/14 10:30:56;;;;;;;1.10;1.00;;;;;;;;;;5097862;28;20205;-84
2024/02/14 10:33:23;;;;;;;0.63;0.63;;;;;;;;;;5078495;28;20235;-83
2024/02/14 10:35:50;;;;;;;0.77;0.77;;;;;;;;;;5090604;28;20203;-83
2024/02/14 10:38:20;;;;;;;0.83;0.83;;;;;;;;;;5083871;28;20209;-84
2024/02/14 10:40:49;;;;;;;0.80;0.80;;;;;;;;;;5071334;28;20205;-84
2024/02/14 10:43:16;;;;;;;0.70;0.67;;;;;;;;;;5078726;28;20595;-84
2024/02/14 10:45:43;;;;;;;0.80;0.80;;;;;;;;;;5094036;28;20688;-84
2024/02/14 10:48:12;;;;;;;0.60;0.60;;;;;;;;;;5095552;28;20336;-84
2024/02/14 10:50:42;;;;;;;0.50;0.50;;;;;;;;;;5094819;28;20208;-84
2024/02/14 10:53:14;;;;;;;0.80;0.80;;;;;;;;;;5095132;28;20288;-84
2024/02/14 10:55:42;;;;;;;0.77;0.77;;;;;;;;;;5094768;28;20223;-84
2024/02/14 10:58:11;;;;;;;0.70;0.70;;;;;;;;;;5094999;28;20242;-84
2024/02/14 11:00:38;;;;;;;1.30;1.20;;;;;;;;;;5090575;28;20379;-84
2024/02/14 11:03:06;;;;;;;0.70;0.70;;;;;;;;;;5085778;28;20265;-84
2024/02/14 11:05:35;;;;;;;0.90;0.90;;;;;;;;;;5099025;28;20199;-84
2024/02/14 11:08:09;;;;;;;0.70;0.70;;;;;;;;;;5103460;28;20200;-84
2024/02/14 11:10:38;;;;;;;0.83;0.83;;;;;;;;;;5094328;28;20204;-84
2024/02/14 11:13:10;;;;;;;0.80;0.80;;;;;;;;;;5095009;28;20204;-84
2024/02/14 11:15:37;;;;;;;1.60;1.40;;;;;;;;;;5094141;28;20227;-88
2024/02/14 11:18:08;;;;;;;5.17;3.10;;;;;;;;;;5093867;28;20675;-85
2024/02/14 11:20:36;;;;;;;2.23;1.80;;;;;;;;;;5094599;28;20291;-84
2024/02/14 11:23:05;;;;;;;4.73;2.27;;;;;;;;;;5093036;28;20208;-84
2024/02/14 11:25:33;;;;;;;1.17;1.10;;;;;;;;;;5073927;28;20947;-83
2024/02/14 11:28:02;;;;;;;1.20;1.10;;;;;;;;;;5090144;28;20204;-84
2024/02/14 11:30:35;;;;;;;3.27;2.00;;;;;;;;;;5094194;28;20200;-83
2024/02/14 11:33:16;;;;;;;1.80;1.40;;;;;;;;;;5094445;28;20228;-84
2024/02/14 11:35:43;;;;;;;0.93;0.93;;;;;;;;;;5107065;28;20604;-84
2024/02/14 11:38:10;;;;;;;0.93;0.93;;;;;;;;;;5094321;28;20213;-84
2024/02/14 11:40:39;;;;;;;0.80;0.80;;;;;;;;;;5094692;28;20583;-84
2024/02/14 11:43:13;;;;;;;1.30;1.30;;;;;;;;;;5080550;28;20205;-84
2024/02/14 11:45:42;;;;;;;3.30;2.10;;;;;;;;;;5093718;28;20294;-84
2024/02/14 11:48:10;;;;;;;5.40;3.03;;;;;;;;;;5093773;28;20245;-84
2024/02/14 11:50:37;;;;;;;2.53;2.27;;;;;;;;;;5094246;28;20200;-84
2024/02/14 11:53:06;;;;;;;2.60;2.00;;;;;;;;;;5094205;28;20208;-84
2024/02/14 11:55:32;;;;;;;1.70;1.50;;;;;;;;;;5077938;28;20232;-84
2024/02/14 11:57:59;;;;;;;2.70;1.90;;;;;;;;;;5082256;28;20683;-84
2024/02/14 12:00:26;;;;;;;2.00;1.57;;;;;;;;;;5093987;28;20204;-82
2024/02/14 12:02:55;;;;;;;2.10;1.90;;;;;;;;;;5093731;28;20219;-83
2024/02/14 12:05:21;;;;;;;0.80;0.80;;;;;;;;;;5093471;28;20200;-83
2024/02/14 12:07:48;;;;;;;0.87;0.87;;;;;;;;;;5093521;28;20626;-84
2024/02/14 12:10:17;;;;;;;2.13;1.03;;;;;;;;;;5093038;28;20200;-84
2024/02/14 12:12:46;;;;;;;0.90;0.90;;;;;;;;;;5093782;28;20686;-84
2024/02/14 12:15:15;;;;;;;1.00;1.00;;;;;;;;;;5092933;28;20232;-84
2024/02/14 12:17:41;;;;;;;1.10;1.00;;;;;;;;;;5083283;28;20291;-83
2024/02/14 12:20:13;;;;;;;0.93;0.80;;;;;;;;;;5090339;28;20200;-83
2024/02/14 12:22:40;;;;;;;0.70;0.70;;;;;;;;;;5093134;28;20204;-87
2024/02/14 12:25:10;;;;;;;1.67;1.57;;;;;;;;;;5093510;28;20261;-83
2024/02/14 12:27:38;;;;;;;2.40;1.90;;;;;;;;;;5093301;28;20200;-84
2024/02/14 12:30:14;;;;;;;4.53;3.97;;;;;;;;;;5092640;28;20206;-84
2024/02/14 12:32:41;;;;;;;2.17;1.97;;;;;;;;;;5093426;28;20239;-85
2024/02/14 12:35:10;;;;;;;17.00;13.00;;;;;;;;;;5079948;28;20241;-83
2024/02/14 12:37:37;;;;;;;4.77;4.20;;;;;;;;;;5105828;28;20273;-84
2024/02/14 12:40:05;;;;;;;53.27;30.43;;;;;;;;;;5073261;28;20233;-83
2024/02/14 12:42:32;;;;;;;12.03;8.70;;;;;;;;;;5074586;28;20617;-84
2024/02/14 12:44:59;;;;;;;12.80;8.70;;;;;;;;;;5084870;28;20209;-84
2024/02/14 12:47:31;;;;;;;22.97;12.67;;;;;;;;;;5088318;28;20696;-83
2024/02/14 12:49:59;;;;;;;45.93;22.27;;;;;;;;;;5093210;28;20578;-83
2024/02/14 12:52:27;;;;;;;17.83;10.53;;;;;;;;;;5092526;28;20196;-84
2024/02/14 12:54:54;;;;;;;22.43;13.53;;;;;;;;;;5092910;28;20235;-84
2024/02/14 12:57:22;;;;;;;11.33;7.43;;;;;;;;;;5092434;28;20203;-84
2024/02/14 12:59:49;;;;;;;5.17;4.00;;;;;;;;;;5092567;28;20671;-84
2024/02/14 13:02:16;;;;;;;5.93;5.40;;;;;;;;;;5074924;28;20206;-84
2024/02/14 13:04:43;;;;;;;3.87;3.37;;;;;;;;;;5083767;28;20211;-84
2024/02/14 13:07:10;;;;;;;4.37;3.70;;;;;;;;;;5073448;28;20651;-84
2024/02/14 13:09:38;;;;;;;8.50;7.60;;;;;;;;;;5083943;28;20552;-84
2024/02/14 13:12:09;;;;;;;11.70;7.50;;;;;;;;;;5074020;28;20232;-84
2024/02/14 13:14:36;;;;;;;7.77;6.37;;;;;;;;;;5096178;28;20220;-84
2024/02/14 13:17:04;;;;;;;5.10;4.10;;;;;;;;;;5079780;28;20203;-84
2024/02/14 13:19:31;;;;;;;6.23;4.90;;;;;;;;;;5092168;28;20216;-83
2024/02/14 13:21:58;;;;;;;5.07;3.57;;;;;;;;;;5098343;28;20204;-84
2024/02/14 13:24:25;;;;;;;6.23;5.37;;;;;;;;;;5086061;28;20219;-84
2024/02/14 13:26:53;;;;;;;12.07;10.73;;;;;;;;;;5091890;28;20200;-84
2024/02/14 13:29:19;;;;;;;8.67;7.47;;;;;;;;;;5078833;28;20210;-84
2024/02/14 13:31:46;;;;;;;7.60;6.87;;;;;;;;;;5078636;28;20197;-84
2024/02/14 13:34:14;;;;;;;9.93;7.27;;;;;;;;;;5091503;28;20638;-84
2024/02/14 13:36:41;;;;;;;6.67;5.70;;;;;;;;;;5081029;28;20710;-84
2024/02/14 13:39:08;;;;;;;4.50;4.10;;;;;;;;;;5085752;28;20207;-85
2024/02/14 13:41:37;;;;;;;7.53;6.57;;;;;;;;;;5084615;28;20223;-87
2024/02/14 13:44:09;;;;;;;8.50;5.73;;;;;;;;;;5071217;28;20251;-85
2024/02/14 13:46:37;;;;;;;3.90;3.50;;;;;;;;;;5080371;28;20269;-84
2024/02/14 13:49:03;;;;;;;3.17;2.60;;;;;;;;;;5084664;28;20284;-85
2024/02/14 13:51:30;;;;;;;2.20;2.00;;;;;;;;;;5088823;28;20208;-85
2024/02/14 13:53:57;;;;;;;2.70;2.50;;;;;;;;;;5098916;28;20201;-83
2024/02/14 13:56:24;;;;;;;2.23;2.13;;;;;;;;;;5085686;28;20235;-85
2024/02/14 13:58:51;;;;;;;2.57;2.37;;;;;;;;;;5087256;28;20196;-86
2024/02/14 14:01:19;;;;;;;2.20;2.10;;;;;;;;;;5092180;28;20253;-86
2024/02/14 14:03:47;;;;;;;2.27;2.17;;;;;;;;;;5077288;28;20215;-86
2024/02/14 14:06:14;;;;;;;2.47;2.27;;;;;;;;;;5091459;28;20231;-86
2024/02/14 14:08:42;;;;;;;3.43;3.13;;;;;;;;;;5078296;28;20212;-85
2024/02/14 14:11:09;;;;;;;2.40;2.23;;;;;;;;;;5073158;28;20196;-85
2024/02/14 14:13:39;;;;;;;2.93;2.20;;;;;;;;;;5091345;28;20292;-86
2024/02/14 14:16:06;;;;;;;1.90;1.80;;;;;;;;;;5082815;28;20287;-84
2024/02/14 14:18:34;;;;;;;1.83;1.73;;;;;;;;;;5085960;28;20200;-85
2024/02/14 14:21:01;;;;;;;3.57;3.27;;;;;;;;;;5080160;28;20209;-84
2024/02/14 14:23:29;;;;;;;2.23;2.03;;;;;;;;;;5089252;28;20212;-84
2024/02/14 14:25:56;;;;;;;3.97;2.00;;;;;;;;;;5090897;28;20200;-84
2024/02/14 14:28:24;;;;;;;1.80;1.70;;;;;;;;;;5104684;28;20218;-84
2024/02/14 14:30:53;;;;;;;1.80;1.70;;;;;;;;;;5090897;28;20208;-83
2024/02/14 14:33:19;;;;;;;3.73;2.57;;;;;;;;;;5091061;28;20289;-82
2024/02/14 14:35:49;;;;;;;2.13;1.80;;;;;;;;;;5091090;28;20668;-83
2024/02/14 14:38:16;;;;;;;2.03;1.90;;;;;;;;;;5086919;28;20205;-84
2024/02/14 14:40:45;;;;;;;1.53;1.43;;;;;;;;;;5098277;28;20256;-84
2024/02/14 14:43:12;;;;;;;3.63;1.80;;;;;;;;;;5077967;28;20235;-84